sensor_id;sensor_type;location;lat;lon;timestamp;temperature;humidity
18717;DHT22;9487;50.892;6.906;2023-06-24T00:00:02;20.20;1.00
18717;DHT22;9487;50.892;6.906;2023-06-24T00:02:34;20.00;1.00
18717;DHT22;9487;50.892;6.906;2023-06-24T00:05:03;19.80;1.00
18717;DHT22;9487;50.892;6.906;2023-06-24T00:07:31;19.70;1.00
18717;DHT22;9487;50.892;6.906;2023-06-24T00:10:01;19.60;1.00
18717;DHT22;9487;50.892;6.906;2023-06-24T00:12:29;19.70;1.00
18717;DHT22;9487;50.892;6.906;2023-06-24T00:14:58;19.70;1.00
18717;DHT22;9487;50.892;6.906;2023-06-24T00:17:25;19.80;1.00
18717;DHT22;9487;50.892;6.906;2023-06-24T00:19:55;19.80;1.00
18717;DHT22;9487;50.892;6.906;2023-06-24T00:22:22;19.90;1.00
18717;DHT22;9487;50.892;6.906;2023-06-24T00:24:49;19.90;1.00
18717;DHT22;9487;50.892;6.906;2023-06-24T00:27:15;19.80;1.00
18717;DHT22;9487;50.892;6.906;2023-06-24T00:29:43;19.80;1.00
18717;DHT22;9487;50.892;6.906;2023-06-24T00:32:09;19.80;1.00
18717;DHT22;9487;50.892;6.906;2023-06-24T00:34:36;19.80;1.00
18717;DHT22;9487;50.892;6.906;2023-06-24T00:37:05;19.80;1.00
18717;DHT22;9487;50.892;6.906;2023-06-24T00:39:32;19.60;1.00
18717;DHT22;9487;50.892;6.906;2023-06-24T00:41:59;19.50;1.00
18717;DHT22;9487;50.892;6.906;2023-06-24T00:44:26;19.40;1.00
18717;DHT22;9487;50.892;6.906;2023-06-24T00:46:53;19.30;1.00
18717;DHT22;9487;50.892;6.906;2023-06-24T00:49:21;19.40;1.00
18717;DHT22;9487;50.892;6.906;2023-06-24T00:51:48;19.40;1.00
18717;DHT22;9487;50.892;6.906;2023-06-24T00:54:17;19.50;1.00
18717;DHT22;9487;50.892;6.906;2023-06-24T00:56:46;19.50;1.00
18717;DHT22;9487;50.892;6.906;2023-06-24T00:59:14;19.60;1.00
18717;DHT22;9487;50.892;6.906;2023-06-24T01:01:42;19.60;1.00
18717;DHT22;9487;50.892;6.906;2023-06-24T01:04:11;19.60;1.00
18717;DHT22;9487;50.892;6.906;2023-06-24T01:06:38;19.70;1.00
18717;DHT22;9487;50.892;6.906;2023-06-24T01:09:09;19.70;1.00
18717;DHT22;9487;50.892;6.906;2023-06-24T01:11:38;19.80;1.00
18717;DHT22;9487;50.892;6.906;2023-06-24T01:14:05;19.70;1.00
18717;DHT22;9487;50.892;6.906;2023-06-24T01:16:37;19.70;1.00
18717;DHT22;9487;50.892;6.906;2023-06-24T01:19:27;19.70;1.00
18717;DHT22;9487;50.892;6.906;2023-06-24T01:22:08;19.70;1.00
18717;DHT22;9487;50.892;6.906;2023-06-24T01:24:51;19.60;1.00
18717;DHT22;9487;50.892;6.906;2023-06-24T01:27:32;19.60;1.00
18717;DHT22;9487;50.892;6.906;2023-06-24T01:30:36;19.60;1.00
18717;DHT22;9487;50.892;6.906;2023-06-24T01:33:11;19.60;1.00
18717;DHT22;9487;50.892;6.906;2023-06-24T01:35:41;19.60;1.00
18717;DHT22;9487;50.892;6.906;2023-06-24T01:38:13;19.60;1.00
18717;DHT22;9487;50.892;6.906;2023-06-24T01:40:44;19.60;1.00
18717;DHT22;9487;50.892;6.906;2023-06-24T01:43:13;19.60;1.00
18717;DHT22;9487;50.892;6.906;2023-06-24T01:45:44;19.60;1.00
18717;DHT22;9487;50.892;6.906;2023-06-24T01:48:14;19.60;1.00
18717;DHT22;9487;50.892;6.906;2023-06-24T01:50:45;19.60;1.00
18717;DHT22;9487;50.892;6.906;2023-06-24T01:53:13;19.50;1.00
18717;DHT22;9487;50.892;6.906;2023-06-24T01:55:41;19.50;1.00
18717;DHT22;9487;50.892;6.906;2023-06-24T01:58:12;19.50;1.00
18717;DHT22;9487;50.892;6.906;2023-06-24T02:00:40;19.40;1.00
18717;DHT22;9487;50.892;6.906;2023-06-24T02:03:08;19.40;1.00
18717;DHT22;9487;50.892;6.906;2023-06-24T02:08:06;19.40;1.00
18717;DHT22;9487;50.892;6.906;2023-06-24T02:10:37;19.40;1.00
18717;DHT22;9487;50.892;6.906;2023-06-24T02:13:05;19.30;1.00
18717;DHT22;9487;50.892;6.906;2023-06-24T02:15:33;19.40;1.00
18717;DHT22;9487;50.892;6.906;2023-06-24T02:18:01;19.30;1.00
18717;DHT22;9487;50.892;6.906;2023-06-24T02:20:31;19.40;1.00
18717;DHT22;9487;50.892;6.906;2023-06-24T02:22:59;19.30;1.00
18717;DHT22;9487;50.892;6.906;2023-06-24T02:25:27;19.30;1.00
18717;DHT22;9487;50.892;6.906;2023-06-24T02:27:55;19.30;1.00
18717;DHT22;9487;50.892;6.906;2023-06-24T02:30:23;19.20;1.00
18717;DHT22;9487;50.892;6.906;2023-06-24T02:32:51;19.20;1.00
18717;DHT22;9487;50.892;6.906;2023-06-24T02:35:19;19.20;1.00
18717;DHT22;9487;50.892;6.906;2023-06-24T02:37:45;19.10;1.00
18717;DHT22;9487;50.892;6.906;2023-06-24T02:40:13;19.10;1.00
18717;DHT22;9487;50.892;6.906;2023-06-24T02:42:42;19.10;1.00
18717;DHT22;9487;50.892;6.906;2023-06-24T02:45:09;19.10;1.00
18717;DHT22;9487;50.892;6.906;2023-06-24T02:47:37;19.10;1.00
18717;DHT22;9487;50.892;6.906;2023-06-24T02:50:06;19.10;1.00
18717;DHT22;9487;50.892;6.906;2023-06-24T02:52:34;19.10;1.00
18717;DHT22;9487;50.892;6.906;2023-06-24T02:55:02;19.10;1.00
18717;DHT22;9487;50.892;6.906;2023-06-24T02:57:30;19.10;1.00
18717;DHT22;9487;50.892;6.906;2023-06-24T02:59:59;19.00;1.00
18717;DHT22;9487;50.892;6.906;2023-06-24T03:02:32;19.00;1.00
18717;DHT22;9487;50.892;6.906;2023-06-24T03:04:59;19.10;1.00
18717;DHT22;9487;50.892;6.906;2023-06-24T03:07:28;19.00;1.00
18717;DHT22;9487;50.892;6.906;2023-06-24T03:09:55;19.10;1.00
18717;DHT22;9487;50.892;6.906;2023-06-24T03:12:23;19.10;1.00
18717;DHT22;9487;50.892;6.906;2023-06-24T03:14:50;19.10;1.00
18717;DHT22;9487;50.892;6.906;2023-06-24T03:17:19;19.00;1.00
18717;DHT22;9487;50.892;6.906;2023-06-24T03:19:46;19.00;1.00
18717;DHT22;9487;50.892;6.906;2023-06-24T03:22:13;18.90;1.00
18717;DHT22;9487;50.892;6.906;2023-06-24T03:24:40;18.90;1.00
18717;DHT22;9487;50.892;6.906;2023-06-24T03:27:07;18.90;1.00
18717;DHT22;9487;50.892;6.906;2023-06-24T03:29:33;18.90;1.00
18717;DHT22;9487;50.892;6.906;2023-06-24T03:32:00;18.90;1.00
18717;DHT22;9487;50.892;6.906;2023-06-24T03:34:30;18.90;1.00
18717;DHT22;9487;50.892;6.906;2023-06-24T03:36:58;18.80;1.00
18717;DHT22;9487;50.892;6.906;2023-06-24T03:39:25;18.80;1.00
18717;DHT22;9487;50.892;6.906;2023-06-24T03:41:52;18.90;1.00
18717;DHT22;9487;50.892;6.906;2023-06-24T03:44:19;18.90;1.00
18717;DHT22;9487;50.892;6.906;2023-06-24T03:46:46;18.90;1.00
18717;DHT22;9487;50.892;6.906;2023-06-24T03:49:13;18.80;1.00
18717;DHT22;9487;50.892;6.906;2023-06-24T03:51:44;18.80;1.00
18717;DHT22;9487;50.892;6.906;2023-06-24T03:54:11;18.70;1.00
18717;DHT22;9487;50.892;6.906;2023-06-24T03:56:40;18.80;1.00
18717;DHT22;9487;50.892;6.906;2023-06-24T03:59:08;18.80;1.00
18717;DHT22;9487;50.892;6.906;2023-06-24T04:01:35;18.80;1.00
18717;DHT22;9487;50.892;6.906;2023-06-24T04:04:02;18.80;1.00
18717;DHT22;9487;50.892;6.906;2023-06-24T04:06:29;18.90;1.00
18717;DHT22;9487;50.892;6.906;2023-06-24T04:08:58;18.80;1.00
18717;DHT22;9487;50.892;6.906;2023-06-24T04:11:24;18.80;1.00
18717;DHT22;9487;50.892;6.906;2023-06-24T04:13:51;18.80;1.00
18717;DHT22;9487;50.892;6.906;2023-06-24T04:16:18;18.90;1.00
18717;DHT22;9487;50.892;6.906;2023-06-24T04:18:46;18.90;1.00
18717;DHT22;9487;50.892;6.906;2023-06-24T04:21:12;19.00;1.00
18717;DHT22;9487;50.892;6.906;2023-06-24T04:23:40;19.10;1.00
18717;DHT22;9487;50.892;6.906;2023-06-24T04:26:08;19.10;1.00
18717;DHT22;9487;50.892;6.906;2023-06-24T04:28:36;19.10;1.00
18717;DHT22;9487;50.892;6.906;2023-06-24T04:31:04;19.30;1.00
18717;DHT22;9487;50.892;6.906;2023-06-24T04:33:31;19.30;1.00
18717;DHT22;9487;50.892;6.906;2023-06-24T04:35:58;19.30;1.00
18717;DHT22;9487;50.892;6.906;2023-06-24T04:38:25;19.40;1.00
18717;DHT22;9487;50.892;6.906;2023-06-24T04:40:52;19.40;1.00
18717;DHT22;9487;50.892;6.906;2023-06-24T04:43:21;19.40;1.00
18717;DHT22;9487;50.892;6.906;2023-06-24T04:45:47;19.60;1.00
18717;DHT22;9487;50.892;6.906;2023-06-24T04:48:14;19.60;1.00
18717;DHT22;9487;50.892;6.906;2023-06-24T04:50:41;19.70;1.00
18717;DHT22;9487;50.892;6.906;2023-06-24T04:53:08;19.70;1.00
18717;DHT22;9487;50.892;6.906;2023-06-24T04:55:36;19.80;1.00
18717;DHT22;9487;50.892;6.906;2023-06-24T04:58:02;19.80;1.00
18717;DHT22;9487;50.892;6.906;2023-06-24T05:00:31;19.90;1.00
18717;DHT22;9487;50.892;6.906;2023-06-24T05:02:58;19.90;1.00
18717;DHT22;9487;50.892;6.906;2023-06-24T05:05:25;20.00;1.00
18717;DHT22;9487;50.892;6.906;2023-06-24T05:07:52;20.10;1.00
18717;DHT22;9487;50.892;6.906;2023-06-24T05:10:19;20.10;1.00
18717;DHT22;9487;50.892;6.906;2023-06-24T05:12:46;20.20;1.00
18717;DHT22;9487;50.892;6.906;2023-06-24T05:15:13;20.10;1.00
18717;DHT22;9487;50.892;6.906;2023-06-24T05:17:42;20.00;1.00
18717;DHT22;9487;50.892;6.906;2023-06-24T05:20:10;20.00;1.00
18717;DHT22;9487;50.892;6.906;2023-06-24T05:22:37;20.00;1.00
18717;DHT22;9487;50.892;6.906;2023-06-24T05:25:05;20.00;1.00
18717;DHT22;9487;50.892;6.906;2023-06-24T05:27:32;20.10;1.00
18717;DHT22;9487;50.892;6.906;2023-06-24T05:29:59;20.20;1.00
18717;DHT22;9487;50.892;6.906;2023-06-24T05:32:26;20.20;1.00
18717;DHT22;9487;50.892;6.906;2023-06-24T05:34:54;20.20;1.00
18717;DHT22;9487;50.892;6.906;2023-06-24T05:37:21;20.40;1.00
18717;DHT22;9487;50.892;6.906;2023-06-24T05:39:48;20.40;1.00
18717;DHT22;9487;50.892;6.906;2023-06-24T05:42:15;20.50;1.00
18717;DHT22;9487;50.892;6.906;2023-06-24T05:44:42;20.60;1.00
18717;DHT22;9487;50.892;6.906;2023-06-24T05:47:09;20.70;1.00
18717;DHT22;9487;50.892;6.906;2023-06-24T05:49:37;20.80;1.00
18717;DHT22;9487;50.892;6.906;2023-06-24T05:52:06;21.00;1.00
18717;DHT22;9487;50.892;6.906;2023-06-24T05:54:33;21.10;1.00
18717;DHT22;9487;50.892;6.906;2023-06-24T05:57:00;21.30;1.00
18717;DHT22;9487;50.892;6.906;2023-06-24T05:59:27;21.50;1.00
18717;DHT22;9487;50.892;6.906;2023-06-24T06:01:53;21.60;1.00
18717;DHT22;9487;50.892;6.906;2023-06-24T06:04:20;22.00;1.00
18717;DHT22;9487;50.892;6.906;2023-06-24T06:06:47;22.30;1.00
18717;DHT22;9487;50.892;6.906;2023-06-24T06:09:15;22.50;1.00
18717;DHT22;9487;50.892;6.906;2023-06-24T06:11:42;22.80;1.00
18717;DHT22;9487;50.892;6.906;2023-06-24T06:14:09;23.00;1.00
18717;DHT22;9487;50.892;6.906;2023-06-24T06:16:36;23.10;1.00
18717;DHT22;9487;50.892;6.906;2023-06-24T06:19:03;23.10;1.00
18717;DHT22;9487;50.892;6.906;2023-06-24T06:21:30;23.20;1.00
18717;DHT22;9487;50.892;6.906;2023-06-24T06:23:56;23.40;1.00
18717;DHT22;9487;50.892;6.906;2023-06-24T06:26:25;23.40;1.00
18717;DHT22;9487;50.892;6.906;2023-06-24T06:28:51;23.40;99.90
18717;DHT22;9487;50.892;6.906;2023-06-24T06:31:19;23.30;99.90
18717;DHT22;9487;50.892;6.906;2023-06-24T06:33:47;23.20;99.90
18717;DHT22;9487;50.892;6.906;2023-06-24T06:36:14;23.10;99.90
18717;DHT22;9487;50.892;6.906;2023-06-24T06:38:41;23.10;99.90
18717;DHT22;9487;50.892;6.906;2023-06-24T06:41:08;23.10;99.90
18717;DHT22;9487;50.892;6.906;2023-06-24T06:43:36;23.10;99.90
18717;DHT22;9487;50.892;6.906;2023-06-24T06:46:03;23.00;99.90
18717;DHT22;9487;50.892;6.906;2023-06-24T06:48:30;22.50;99.90
18717;DHT22;9487;50.892;6.906;2023-06-24T06:50:57;22.10;99.90
18717;DHT22;9487;50.892;6.906;2023-06-24T06:53:24;22.40;99.90
18717;DHT22;9487;50.892;6.906;2023-06-24T06:55:51;22.10;99.90
18717;DHT22;9487;50.892;6.906;2023-06-24T06:58:17;21.90;1.00
18717;DHT22;9487;50.892;6.906;2023-06-24T07:00:46;21.80;1.00
18717;DHT22;9487;50.892;6.906;2023-06-24T07:03:13;21.60;99.90
18717;DHT22;9487;50.892;6.906;2023-06-24T07:05:40;21.90;99.90
18717;DHT22;9487;50.892;6.906;2023-06-24T07:08:07;21.80;99.90
18717;DHT22;9487;50.892;6.906;2023-06-24T07:10:34;21.60;99.90
18717;DHT22;9487;50.892;6.906;2023-06-24T07:13:01;21.60;65.30
18717;DHT22;9487;50.892;6.906;2023-06-24T07:15:28;21.90;99.90
18717;DHT22;9487;50.892;6.906;2023-06-24T07:17:56;22.00;99.90
18717;DHT22;9487;50.892;6.906;2023-06-24T07:20:24;22.30;99.90
18717;DHT22;9487;50.892;6.906;2023-06-24T07:22:51;22.50;99.90
18717;DHT22;9487;50.892;6.906;2023-06-24T07:25:17;22.90;99.90
18717;DHT22;9487;50.892;6.906;2023-06-24T07:27:44;23.10;99.90
18717;DHT22;9487;50.892;6.906;2023-06-24T07:30:11;23.40;1.00
18717;DHT22;9487;50.892;6.906;2023-06-24T07:32:38;23.60;1.00
18717;DHT22;9487;50.892;6.906;2023-06-24T07:35:07;23.40;1.00
18717;DHT22;9487;50.892;6.906;2023-06-24T07:37:35;22.90;52.40
18717;DHT22;9487;50.892;6.906;2023-06-24T07:40:05;22.90;99.90
18717;DHT22;9487;50.892;6.906;2023-06-24T07:42:33;22.60;99.90
18717;DHT22;9487;50.892;6.906;2023-06-24T07:45:00;22.70;99.90
18717;DHT22;9487;50.892;6.906;2023-06-24T07:47:27;22.70;99.90
18717;DHT22;9487;50.892;6.906;2023-06-24T07:49:54;22.60;99.90
18717;DHT22;9487;50.892;6.906;2023-06-24T07:52:22;22.70;99.90
18717;DHT22;9487;50.892;6.906;2023-06-24T07:54:49;22.70;99.90
18717;DHT22;9487;50.892;6.906;2023-06-24T07:57:16;22.90;91.90
18717;DHT22;9487;50.892;6.906;2023-06-24T07:59:43;23.10;1.00
18717;DHT22;9487;50.892;6.906;2023-06-24T08:02:10;23.50;1.00
18717;DHT22;9487;50.892;6.906;2023-06-24T08:04:37;23.80;1.00
18717;DHT22;9487;50.892;6.906;2023-06-24T08:07:04;23.90;1.00
18717;DHT22;9487;50.892;6.906;2023-06-24T08:09:33;23.90;1.00
18717;DHT22;9487;50.892;6.906;2023-06-24T08:12:00;23.70;1.00
18717;DHT22;9487;50.892;6.906;2023-06-24T08:14:27;23.70;1.00
18717;DHT22;9487;50.892;6.906;2023-06-24T08:16:53;23.80;1.00
18717;DHT22;9487;50.892;6.906;2023-06-24T08:19:20;23.60;1.00
18717;DHT22;9487;50.892;6.906;2023-06-24T08:21:47;23.80;1.00
18717;DHT22;9487;50.892;6.906;2023-06-24T08:24:14;23.90;1.00
18717;DHT22;9487;50.892;6.906;2023-06-24T08:30:01;24.50;99.90
18717;DHT22;9487;50.892;6.906;2023-06-24T08:32:28;24.50;99.90
18717;DHT22;9487;50.892;6.906;2023-06-24T08:34:55;24.30;99.90
18717;DHT22;9487;50.892;6.906;2023-06-24T08:37:22;24.00;99.90
18717;DHT22;9487;50.892;6.906;2023-06-24T08:39:49;23.80;1.00
18717;DHT22;9487;50.892;6.906;2023-06-24T08:42:15;24.00;1.00
18717;DHT22;9487;50.892;6.906;2023-06-24T08:44:42;24.30;99.90
18717;DHT22;9487;50.892;6.906;2023-06-24T08:47:11;24.60;99.90
18717;DHT22;9487;50.892;6.906;2023-06-24T08:49:46;24.80;99.90
18717;DHT22;9487;50.892;6.906;2023-06-24T08:52:15;25.10;1.00
18717;DHT22;9487;50.892;6.906;2023-06-24T08:54:46;24.90;1.00
18717;DHT22;9487;50.892;6.906;2023-06-24T08:57:14;24.40;99.90
18717;DHT22;9487;50.892;6.906;2023-06-24T08:59:41;24.40;99.90
18717;DHT22;9487;50.892;6.906;2023-06-24T09:02:08;24.50;99.90
18717;DHT22;9487;50.892;6.906;2023-06-24T09:04:38;24.90;1.00
18717;DHT22;9487;50.892;6.906;2023-06-24T09:07:05;25.20;1.00
18717;DHT22;9487;50.892;6.906;2023-06-24T09:09:32;25.00;99.90
18717;DHT22;9487;50.892;6.906;2023-06-24T09:11:59;24.90;1.00
18717;DHT22;9487;50.892;6.906;2023-06-24T09:14:28;24.80;1.00
18717;DHT22;9487;50.892;6.906;2023-06-24T09:16:57;25.00;1.00
18717;DHT22;9487;50.892;6.906;2023-06-24T09:19:25;25.40;99.90
18717;DHT22;9487;50.892;6.906;2023-06-24T09:21:56;24.90;99.90
18717;DHT22;9487;50.892;6.906;2023-06-24T09:24:27;25.00;1.00
18717;DHT22;9487;50.892;6.906;2023-06-24T09:26:56;25.40;99.90
18717;DHT22;9487;50.892;6.906;2023-06-24T09:29:25;25.30;1.00
18717;DHT22;9487;50.892;6.906;2023-06-24T09:31:53;24.80;99.90
18717;DHT22;9487;50.892;6.906;2023-06-24T09:34:21;24.80;1.00
18717;DHT22;9487;50.892;6.906;2023-06-24T09:36:51;24.60;1.00
18717;DHT22;9487;50.892;6.906;2023-06-24T09:39:20;24.90;1.00
18717;DHT22;9487;50.892;6.906;2023-06-24T09:41:53;25.30;99.90
18717;DHT22;9487;50.892;6.906;2023-06-24T09:44:20;25.60;1.00
18717;DHT22;9487;50.892;6.906;2023-06-24T09:46:47;25.90;1.00
18717;DHT22;9487;50.892;6.906;2023-06-24T09:49:15;26.20;1.00
18717;DHT22;9487;50.892;6.906;2023-06-24T09:51:45;26.20;99.90
18717;DHT22;9487;50.892;6.906;2023-06-24T09:54:13;26.20;1.00
18717;DHT22;9487;50.892;6.906;2023-06-24T09:56:43;26.20;99.90
18717;DHT22;9487;50.892;6.906;2023-06-24T09:59:13;25.90;1.00
18717;DHT22;9487;50.892;6.906;2023-06-24T10:01:41;25.50;99.90
18717;DHT22;9487;50.892;6.906;2023-06-24T10:04:15;25.60;99.90
18717;DHT22;9487;50.892;6.906;2023-06-24T10:06:42;26.00;1.00
18717;DHT22;9487;50.892;6.906;2023-06-24T10:09:09;25.70;1.00
18717;DHT22;9487;50.892;6.906;2023-06-24T10:11:39;25.60;99.90
18717;DHT22;9487;50.892;6.906;2023-06-24T10:14:07;25.60;99.90
18717;DHT22;9487;50.892;6.906;2023-06-24T10:16:34;25.60;99.90
18717;DHT22;9487;50.892;6.906;2023-06-24T10:19:01;25.80;1.00
18717;DHT22;9487;50.892;6.906;2023-06-24T10:21:45;26.10;99.90
18717;DHT22;9487;50.892;6.906;2023-06-24T10:24:13;26.40;1.00
18717;DHT22;9487;50.892;6.906;2023-06-24T10:26:40;26.50;1.00
18717;DHT22;9487;50.892;6.906;2023-06-24T10:29:12;26.50;99.90
18717;DHT22;9487;50.892;6.906;2023-06-24T10:31:52;26.50;1.00
18717;DHT22;9487;50.892;6.906;2023-06-24T10:34:32;26.70;99.90
18717;DHT22;9487;50.892;6.906;2023-06-24T10:37:01;26.80;1.00
18717;DHT22;9487;50.892;6.906;2023-06-24T10:39:52;26.90;1.00
18717;DHT22;9487;50.892;6.906;2023-06-24T10:42:38;26.60;1.00
18717;DHT22;9487;50.892;6.906;2023-06-24T10:45:19;26.30;1.00
18717;DHT22;9487;50.892;6.906;2023-06-24T10:47:48;26.40;1.00
18717;DHT22;9487;50.892;6.906;2023-06-24T10:50:17;26.70;1.00
18717;DHT22;9487;50.892;6.906;2023-06-24T10:52:46;26.80;1.00
18717;DHT22;9487;50.892;6.906;2023-06-24T10:55:14;26.80;1.00
18717;DHT22;9487;50.892;6.906;2023-06-24T10:57:42;26.50;1.00
18717;DHT22;9487;50.892;6.906;2023-06-24T11:00:11;26.50;1.00
18717;DHT22;9487;50.892;6.906;2023-06-24T11:02:39;26.30;1.00
18717;DHT22;9487;50.892;6.906;2023-06-24T11:05:07;26.50;1.00
18717;DHT22;9487;50.892;6.906;2023-06-24T11:07:36;26.50;1.00
18717;DHT22;9487;50.892;6.906;2023-06-24T11:10:05;26.50;7.60
18717;DHT22;9487;50.892;6.906;2023-06-24T11:12:33;26.80;1.00
18717;DHT22;9487;50.892;6.906;2023-06-24T11:15:01;26.90;29.90
18717;DHT22;9487;50.892;6.906;2023-06-24T11:17:29;27.00;99.90
18717;DHT22;9487;50.892;6.906;2023-06-24T11:19:57;26.70;99.90
18717;DHT22;9487;50.892;6.906;2023-06-24T11:22:25;26.70;99.90
18717;DHT22;9487;50.892;6.906;2023-06-24T11:24:54;26.80;99.90
18717;DHT22;9487;50.892;6.906;2023-06-24T11:27:24;26.70;99.90
18717;DHT22;9487;50.892;6.906;2023-06-24T11:29:53;27.00;1.00
18717;DHT22;9487;50.892;6.906;2023-06-24T11:32:20;27.20;99.90
18717;DHT22;9487;50.892;6.906;2023-06-24T11:34:47;27.10;99.90
18717;DHT22;9487;50.892;6.906;2023-06-24T11:37:17;27.00;1.00
18717;DHT22;9487;50.892;6.906;2023-06-24T11:39:45;27.00;1.00
18717;DHT22;9487;50.892;6.906;2023-06-24T11:42:13;27.10;1.00
18717;DHT22;9487;50.892;6.906;2023-06-24T11:44:43;27.30;1.00
18717;DHT22;9487;50.892;6.906;2023-06-24T11:47:11;27.20;99.90
18717;DHT22;9487;50.892;6.906;2023-06-24T11:49:48;27.30;1.00
18717;DHT22;9487;50.892;6.906;2023-06-24T11:52:17;27.40;99.90
18717;DHT22;9487;50.892;6.906;2023-06-24T11:54:44;27.40;1.00
18717;DHT22;9487;50.892;6.906;2023-06-24T11:57:11;27.50;1.00
18717;DHT22;9487;50.892;6.906;2023-06-24T11:59:38;27.60;99.90
18717;DHT22;9487;50.892;6.906;2023-06-24T12:02:05;27.70;99.90
18717;DHT22;9487;50.892;6.906;2023-06-24T12:04:33;27.90;99.90
18717;DHT22;9487;50.892;6.906;2023-06-24T12:07:00;28.00;99.90
18717;DHT22;9487;50.892;6.906;2023-06-24T12:09:28;27.70;99.90
18717;DHT22;9487;50.892;6.906;2023-06-24T12:11:55;27.50;99.90
18717;DHT22;9487;50.892;6.906;2023-06-24T12:14:22;27.70;99.90
18717;DHT22;9487;50.892;6.906;2023-06-24T12:16:49;28.00;99.90
18717;DHT22;9487;50.892;6.906;2023-06-24T12:19:16;27.80;97.50
18717;DHT22;9487;50.892;6.906;2023-06-24T12:21:43;27.50;8.80
18717;DHT22;9487;50.892;6.906;2023-06-24T12:24:10;27.60;8.10
18717;DHT22;9487;50.892;6.906;2023-06-24T12:26:40;27.70;1.00
18717;DHT22;9487;50.892;6.906;2023-06-24T12:29:07;27.70;1.00
18717;DHT22;9487;50.892;6.906;2023-06-24T12:31:33;27.80;1.00
18717;DHT22;9487;50.892;6.906;2023-06-24T12:34:00;27.90;1.00
18717;DHT22;9487;50.892;6.906;2023-06-24T12:36:27;28.00;1.00
18717;DHT22;9487;50.892;6.906;2023-06-24T12:38:54;28.10;1.00
18717;DHT22;9487;50.892;6.906;2023-06-24T12:41:21;28.10;99.90
18717;DHT22;9487;50.892;6.906;2023-06-24T12:43:49;28.30;99.90
18717;DHT22;9487;50.892;6.906;2023-06-24T12:46:16;28.40;99.90
18717;DHT22;9487;50.892;6.906;2023-06-24T12:48:43;28.70;1.00
18717;DHT22;9487;50.892;6.906;2023-06-24T12:51:10;28.80;99.90
18717;DHT22;9487;50.892;6.906;2023-06-24T12:53:37;28.80;99.90
18717;DHT22;9487;50.892;6.906;2023-06-24T12:56:04;28.10;99.90
18717;DHT22;9487;50.892;6.906;2023-06-24T12:58:31;27.80;99.90
18717;DHT22;9487;50.892;6.906;2023-06-24T13:00:59;27.50;1.00
18717;DHT22;9487;50.892;6.906;2023-06-24T13:03:26;27.30;1.00
18717;DHT22;9487;50.892;6.906;2023-06-24T13:05:53;27.30;1.00
18717;DHT22;9487;50.892;6.906;2023-06-24T13:08:19;27.30;1.00
18717;DHT22;9487;50.892;6.906;2023-06-24T13:10:46;27.60;1.00
18717;DHT22;9487;50.892;6.906;2023-06-24T13:13:13;27.80;1.00
18717;DHT22;9487;50.892;6.906;2023-06-24T13:15:40;28.10;1.00
18717;DHT22;9487;50.892;6.906;2023-06-24T13:18:08;28.40;99.90
18717;DHT22;9487;50.892;6.906;2023-06-24T13:20:35;28.40;99.90
18717;DHT22;9487;50.892;6.906;2023-06-24T13:23:02;28.40;99.90
18717;DHT22;9487;50.892;6.906;2023-06-24T13:25:29;28.30;99.90
18717;DHT22;9487;50.892;6.906;2023-06-24T13:27:57;28.00;99.90
18717;DHT22;9487;50.892;6.906;2023-06-24T13:30:24;27.90;99.90
18717;DHT22;9487;50.892;6.906;2023-06-24T13:32:51;28.10;99.90
18717;DHT22;9487;50.892;6.906;2023-06-24T13:35:19;28.00;99.90
18717;DHT22;9487;50.892;6.906;2023-06-24T13:37:46;27.90;99.90
18717;DHT22;9487;50.892;6.906;2023-06-24T13:40:13;28.10;99.90
18717;DHT22;9487;50.892;6.906;2023-06-24T13:42:40;28.10;99.90
18717;DHT22;9487;50.892;6.906;2023-06-24T13:45:07;28.20;99.90
18717;DHT22;9487;50.892;6.906;2023-06-24T13:47:34;28.00;99.90
18717;DHT22;9487;50.892;6.906;2023-06-24T13:50:01;28.00;99.90
18717;DHT22;9487;50.892;6.906;2023-06-24T13:52:30;28.20;99.90
18717;DHT22;9487;50.892;6.906;2023-06-24T13:54:56;28.40;99.90
18717;DHT22;9487;50.892;6.906;2023-06-24T13:57:24;28.30;99.90
18717;DHT22;9487;50.892;6.906;2023-06-24T13:59:51;28.50;99.90
18717;DHT22;9487;50.892;6.906;2023-06-24T14:02:18;28.60;99.90
18717;DHT22;9487;50.892;6.906;2023-06-24T14:04:45;28.50;99.90
18717;DHT22;9487;50.892;6.906;2023-06-24T14:07:12;28.40;99.90
18717;DHT22;9487;50.892;6.906;2023-06-24T14:09:41;28.40;99.90
18717;DHT22;9487;50.892;6.906;2023-06-24T14:12:09;28.20;99.90
18717;DHT22;9487;50.892;6.906;2023-06-24T14:14:36;28.10;99.90
18717;DHT22;9487;50.892;6.906;2023-06-24T14:17:05;28.00;99.90
18717;DHT22;9487;50.892;6.906;2023-06-24T14:19:34;27.90;99.90
18717;DHT22;9487;50.892;6.906;2023-06-24T14:22:01;28.00;99.90
18717;DHT22;9487;50.892;6.906;2023-06-24T14:24:28;28.10;99.90
18717;DHT22;9487;50.892;6.906;2023-06-24T14:26:57;28.30;99.90
18717;DHT22;9487;50.892;6.906;2023-06-24T14:29:24;28.30;99.90
18717;DHT22;9487;50.892;6.906;2023-06-24T14:31:51;28.20;99.90
18717;DHT22;9487;50.892;6.906;2023-06-24T14:34:18;28.10;99.90
18717;DHT22;9487;50.892;6.906;2023-06-24T14:36:45;28.10;99.90
18717;DHT22;9487;50.892;6.906;2023-06-24T14:39:14;28.00;99.90
18717;DHT22;9487;50.892;6.906;2023-06-24T14:41:42;28.00;99.90
18717;DHT22;9487;50.892;6.906;2023-06-24T14:44:10;28.20;99.90
18717;DHT22;9487;50.892;6.906;2023-06-24T14:46:37;28.20;99.90
18717;DHT22;9487;50.892;6.906;2023-06-24T14:49:04;28.40;99.90
18717;DHT22;9487;50.892;6.906;2023-06-24T14:51:31;28.20;29.50
18717;DHT22;9487;50.892;6.906;2023-06-24T14:53:57;28.20;5.80
18717;DHT22;9487;50.892;6.906;2023-06-24T14:56:25;28.50;1.00
18717;DHT22;9487;50.892;6.906;2023-06-24T14:58:52;28.20;34.70
18717;DHT22;9487;50.892;6.906;2023-06-24T15:01:20;28.30;31.70
18717;DHT22;9487;50.892;6.906;2023-06-24T15:03:47;28.50;4.30
18717;DHT22;9487;50.892;6.906;2023-06-24T15:06:14;28.50;9.30
18717;DHT22;9487;50.892;6.906;2023-06-24T15:08:40;28.50;1.00
18717;DHT22;9487;50.892;6.906;2023-06-24T15:11:07;28.40;1.00
18717;DHT22;9487;50.892;6.906;2023-06-24T15:13:34;28.20;1.00
18717;DHT22;9487;50.892;6.906;2023-06-24T15:16:01;28.40;1.00
18717;DHT22;9487;50.892;6.906;2023-06-24T15:18:29;28.50;99.90
18717;DHT22;9487;50.892;6.906;2023-06-24T15:20:56;28.50;1.00
18717;DHT22;9487;50.892;6.906;2023-06-24T15:23:23;28.20;1.00
18717;DHT22;9487;50.892;6.906;2023-06-24T15:25:50;28.60;1.00
18717;DHT22;9487;50.892;6.906;2023-06-24T15:28:17;28.40;1.00
18717;DHT22;9487;50.892;6.906;2023-06-24T15:30:44;28.30;1.00
18717;DHT22;9487;50.892;6.906;2023-06-24T15:33:11;28.20;1.00
18717;DHT22;9487;50.892;6.906;2023-06-24T15:35:39;28.30;1.00
18717;DHT22;9487;50.892;6.906;2023-06-24T15:38:06;28.30;1.00
18717;DHT22;9487;50.892;6.906;2023-06-24T15:40:33;28.30;1.00
18717;DHT22;9487;50.892;6.906;2023-06-24T15:43:00;28.40;1.00
18717;DHT22;9487;50.892;6.906;2023-06-24T15:45:28;28.50;1.00
18717;DHT22;9487;50.892;6.906;2023-06-24T15:47:55;28.50;1.00
18717;DHT22;9487;50.892;6.906;2023-06-24T15:50:21;28.70;1.00
18717;DHT22;9487;50.892;6.906;2023-06-24T15:52:50;28.80;1.00
18717;DHT22;9487;50.892;6.906;2023-06-24T15:55:17;28.80;1.00
18717;DHT22;9487;50.892;6.906;2023-06-24T15:57:44;29.00;1.00
18717;DHT22;9487;50.892;6.906;2023-06-24T16:00:11;29.00;1.00
18717;DHT22;9487;50.892;6.906;2023-06-24T16:02:39;29.00;99.90
18717;DHT22;9487;50.892;6.906;2023-06-24T16:05:06;29.00;99.90
18717;DHT22;9487;50.892;6.906;2023-06-24T16:07:33;28.90;99.90